EXS72L GCRR-EGNM
Flight info
| Callsign | EXS72L |
|---|---|
| Flight time | 3h 25m |
| Altitude | 38000 |
| Route | VASTO DCT NIDEB DCT TIGGI DCT ULVOT DCT XAPIM DCT PINEK DCT KORUL DCT KOLEK DCT EBOMO DCT RUSIB DCT NOZHU DCT SHIRI DCT TOJAQ DCT EPACE DCT ACCOP DCT MOCQO P16 MONTY N864 REXAM DCT BARTN DCT POL |
| Aircraft | B738/M-SDE2E3FGHIRWXY/LB1 |
Departure
| Time | 2026-04-30 10:06 |
|---|---|
| Airport | César Manrique-Lanzarote Airport (GCRR) |
Arrival
| Time | 2026-04-30 13:32 |
|---|---|
| Airport | Leeds Bradford Airport (EGNM) |
| Time | Latitude | Longitude | Altitude | Speed | Heading |
|---|---|---|---|---|---|
| 2026-04-30 09:53 | 28.94943 | -13.60587 | 56 ft | 0 kts | 298° |
| 2026-04-30 10:01 | 28.94943 | -13.60588 | 62 ft | 0 kts | 298° |
| 2026-04-30 10:01 | 28.94954 | -13.60612 | 55 ft | 7 kts | 298° |
| 2026-04-30 10:01 | 28.94953 | -13.60665 | 62 ft | 7 kts | 211° |
| 2026-04-30 10:02 | 28.94818 | -13.60572 | 62 ft | 20 kts | 189° |
| 2026-04-30 10:02 | 28.94709 | -13.60638 | 56 ft | 15 kts | 204° |
| 2026-04-30 10:02 | 28.94618 | -13.60685 | 56 ft | 14 kts | 204° |
| 2026-04-30 10:02 | 28.94533 | -13.60735 | 58 ft | 13 kts | 208° |
| 2026-04-30 10:03 | 28.94452 | -13.60782 | 62 ft | 13 kts | 206° |
| 2026-04-30 10:03 | 28.94373 | -13.60828 | 56 ft | 13 kts | 208° |
| 2026-04-30 10:03 | 28.94297 | -13.60874 | 62 ft | 12 kts | 207° |
| 2026-04-30 10:03 | 28.94222 | -13.60918 | 62 ft | 12 kts | 206° |
| 2026-04-30 10:04 | 28.94148 | -13.60959 | 60 ft | 12 kts | 205° |
| 2026-04-30 10:04 | 28.94072 | -13.61002 | 58 ft | 16 kts | 207° |
| 2026-04-30 10:04 | 28.93946 | -13.61075 | 58 ft | 22 kts | 206° |
| 2026-04-30 10:04 | 28.93809 | -13.61153 | 61 ft | 22 kts | 207° |
| 2026-04-30 10:05 | 28.93685 | -13.61219 | 55 ft | 15 kts | 184° |
| 2026-04-30 10:05 | 28.93622 | -13.61144 | 58 ft | 13 kts | 115° |
| 2026-04-30 10:05 | 28.93641 | -13.61052 | 60 ft | 13 kts | 38° |
| 2026-04-30 10:05 | 28.93717 | -13.61004 | 54 ft | 12 kts | 27° |
| 2026-04-30 10:06 | 28.93921 | -13.60887 | 63 ft | 75 kts | 27° |
| 2026-04-30 10:06 | 28.94657 | -13.60461 | 54 ft | 159 kts | 26° |
| 2026-04-30 10:06 | 28.95834 | -13.59770 | 277 ft | 211 kts | 28° |
| 2026-04-30 10:06 | 28.97157 | -13.58975 | 1132 ft | 216 kts | 32° |
| 2026-04-30 10:07 | 28.98223 | -13.57672 | 1837 ft | 244 kts | 59° |
| 2026-04-30 10:07 | 28.99249 | -13.56031 | 2217 ft | 268 kts | 42° |
| 2026-04-30 10:07 | 29.00877 | -13.54799 | 2409 ft | 295 kts | 25° |
| 2026-04-30 10:07 | 29.02888 | -13.53929 | 2692 ft | 322 kts | 17° |
| 2026-04-30 10:08 | 29.05071 | -13.53193 | 3425 ft | 330 kts | 15° |
| 2026-04-30 10:08 | 29.07292 | -13.52465 | 4321 ft | 334 kts | 15° |
| 2026-04-30 10:08 | 29.09536 | -13.51661 | 5138 ft | 341 kts | 16° |
| 2026-04-30 10:08 | 29.11807 | -13.50790 | 5932 ft | 346 kts | 17° |
| 2026-04-30 10:09 | 29.14091 | -13.49895 | 6729 ft | 351 kts | 17° |
| 2026-04-30 10:09 | 29.16426 | -13.48981 | 7386 ft | 358 kts | 17° |
| 2026-04-30 10:09 | 29.18801 | -13.48060 | 8087 ft | 362 kts | 17° |
| 2026-04-30 10:09 | 29.21194 | -13.47137 | 8813 ft | 366 kts | 17° |
| 2026-04-30 10:10 | 29.23626 | -13.46206 | 9521 ft | 371 kts | 16° |
| 2026-04-30 10:10 | 29.26085 | -13.45268 | 10194 ft | 375 kts | 16° |
| 2026-04-30 10:10 | 29.28572 | -13.44323 | 10837 ft | 379 kts | 16° |
| 2026-04-30 10:10 | 29.31088 | -13.43367 | 11494 ft | 382 kts | 16° |
| 2026-04-30 10:11 | 29.33620 | -13.42406 | 12138 ft | 385 kts | 16° |
| 2026-04-30 10:11 | 29.36178 | -13.41435 | 12776 ft | 389 kts | 16° |
| 2026-04-30 10:11 | 29.38762 | -13.40454 | 13401 ft | 393 kts | 16° |
| 2026-04-30 10:11 | 29.41369 | -13.39464 | 14004 ft | 397 kts | 16° |
| 2026-04-30 10:12 | 29.43997 | -13.38465 | 14581 ft | 400 kts | 15° |
| 2026-04-30 10:12 | 29.46641 | -13.37459 | 15193 ft | 402 kts | 15° |
| 2026-04-30 10:12 | 29.49264 | -13.36460 | 15766 ft | 404 kts | 15° |
| 2026-04-30 10:12 | 29.51942 | -13.35439 | 16343 ft | 406 kts | 15° |
| 2026-04-30 10:13 | 29.54630 | -13.34415 | 16907 ft | 409 kts | 15° |
| 2026-04-30 10:13 | 29.57337 | -13.33383 | 17464 ft | 411 kts | 15° |
| 2026-04-30 10:13 | 29.60058 | -13.32345 | 18012 ft | 414 kts | 15° |
| 2026-04-30 10:13 | 29.62801 | -13.31298 | 18532 ft | 416 kts | 14° |
| 2026-04-30 10:14 | 29.65554 | -13.30247 | 18991 ft | 419 kts | 14° |
| 2026-04-30 10:14 | 29.68327 | -13.29188 | 19451 ft | 421 kts | 14° |
| 2026-04-30 10:14 | 29.73919 | -13.27050 | 20398 ft | 426 kts | 14° |
| 2026-04-30 10:15 | 29.76743 | -13.25991 | 20838 ft | 428 kts | 13° |
| 2026-04-30 10:15 | 29.79625 | -13.24968 | 20948 ft | 439 kts | 12° |
| 2026-04-30 10:15 | 29.82577 | -13.23952 | 21194 ft | 445 kts | 12° |
| 2026-04-30 10:15 | 29.85550 | -13.22935 | 21600 ft | 446 kts | 12° |
| 2026-04-30 10:16 | 29.88528 | -13.21912 | 22044 ft | 447 kts | 12° |
| 2026-04-30 10:16 | 29.91514 | -13.20879 | 22438 ft | 449 kts | 12° |
| 2026-04-30 10:16 | 29.94514 | -13.19836 | 22787 ft | 452 kts | 12° |
| 2026-04-30 10:17 | 30.00555 | -13.17722 | 23474 ft | 456 kts | 12° |
| 2026-04-30 10:17 | 30.06650 | -13.15581 | 24111 ft | 459 kts | 12° |
| 2026-04-30 10:17 | 30.09698 | -13.14508 | 24462 ft | 459 kts | 12° |
| 2026-04-30 10:18 | 30.12753 | -13.13432 | 24810 ft | 459 kts | 12° |
| 2026-04-30 10:18 | 30.15817 | -13.12354 | 24957 ft | 464 kts | 13° |
| 2026-04-30 10:18 | 30.18926 | -13.11263 | 25123 ft | 468 kts | 12° |
| 2026-04-30 10:19 | 30.25136 | -13.09074 | 25926 ft | 464 kts | 12° |
| 2026-04-30 10:19 | 30.28218 | -13.07983 | 26295 ft | 463 kts | 12° |
| 2026-04-30 10:19 | 30.31288 | -13.06897 | 26669 ft | 462 kts | 12° |
| 2026-04-30 10:19 | 30.34359 | -13.05810 | 27068 ft | 459 kts | 12° |
| 2026-04-30 10:20 | 30.37400 | -13.04733 | 27555 ft | 455 kts | 12° |
| 2026-04-30 10:20 | 30.43379 | -13.02613 | 28674 ft | 444 kts | 11° |
| 2026-04-30 10:20 | 30.46274 | -13.01585 | 29207 ft | 440 kts | 11° |
| 2026-04-30 10:21 | 30.49189 | -13.00552 | 29721 ft | 436 kts | 11° |
| 2026-04-30 10:21 | 30.52081 | -12.99527 | 30247 ft | 432 kts | 11° |
| 2026-04-30 10:21 | 30.54938 | -12.98513 | 30682 ft | 429 kts | 11° |
| 2026-04-30 10:21 | 30.57789 | -12.97502 | 31042 ft | 427 kts | 10° |
| 2026-04-30 10:22 | 30.60626 | -12.96496 | 31382 ft | 426 kts | 10° |
| 2026-04-30 10:22 | 30.63454 | -12.95493 | 31710 ft | 425 kts | 10° |
| 2026-04-30 10:22 | 30.66273 | -12.94491 | 32087 ft | 423 kts | 10° |
| 2026-04-30 10:22 | 30.69080 | -12.93491 | 32504 ft | 420 kts | 9° |
| 2026-04-30 10:23 | 30.71861 | -12.92500 | 32903 ft | 417 kts | 9° |
| 2026-04-30 10:23 | 30.74626 | -12.91514 | 33255 ft | 415 kts | 9° |
| 2026-04-30 10:23 | 30.77389 | -12.90529 | 33608 ft | 414 kts | 9° |
| 2026-04-30 10:23 | 30.80129 | -12.89551 | 33972 ft | 412 kts | 9° |
| 2026-04-30 10:24 | 30.82865 | -12.88574 | 34310 ft | 410 kts | 9° |
| 2026-04-30 10:24 | 30.85592 | -12.87602 | 34495 ft | 411 kts | 9° |
| 2026-04-30 10:24 | 30.88340 | -12.86624 | 34627 ft | 414 kts | 9° |
| 2026-04-30 10:24 | 30.91096 | -12.85641 | 34792 ft | 415 kts | 9° |
| 2026-04-30 10:25 | 30.93854 | -12.84656 | 35038 ft | 415 kts | 9° |
| 2026-04-30 10:25 | 30.95681 | -12.84002 | 35180 ft | 415 kts | 9° |
| 2026-04-30 10:25 | 30.98448 | -12.83011 | 35338 ft | 417 kts | 9° |
| 2026-04-30 10:25 | 31.01229 | -12.82015 | 35501 ft | 418 kts | 9° |
| 2026-04-30 10:26 | 31.04006 | -12.81019 | 35709 ft | 418 kts | 9° |
| 2026-04-30 10:26 | 31.06790 | -12.80019 | 35910 ft | 419 kts | 9° |
| 2026-04-30 10:26 | 31.09579 | -12.79018 | 36065 ft | 420 kts | 9° |
| 2026-04-30 10:26 | 31.13322 | -12.77673 | 36297 ft | 421 kts | 9° |
| 2026-04-30 10:27 | 31.15177 | -12.77006 | 36450 ft | 421 kts | 10° |
| 2026-04-30 10:27 | 31.17984 | -12.75998 | 36520 ft | 425 kts | 10° |
| 2026-04-30 10:27 | 31.23697 | -12.73945 | 36683 ft | 431 kts | 10° |
| 2026-04-30 10:28 | 31.26558 | -12.72912 | 36901 ft | 431 kts | 10° |
| 2026-04-30 10:28 | 31.29426 | -12.71875 | 37083 ft | 431 kts | 10° |
| 2026-04-30 10:28 | 31.35183 | -12.69795 | 37300 ft | 434 kts | 11° |
| 2026-04-30 10:29 | 31.38063 | -12.68754 | 37466 ft | 434 kts | 11° |
| 2026-04-30 10:29 | 31.40953 | -12.67708 | 37619 ft | 434 kts | 11° |
| 2026-04-30 10:29 | 31.46746 | -12.65612 | 37828 ft | 438 kts | 11° |
| 2026-04-30 10:30 | 31.52583 | -12.63497 | 38069 ft | 439 kts | 11° |
| 2026-04-30 10:30 | 31.58446 | -12.61370 | 38112 ft | 442 kts | 11° |
| 2026-04-30 10:31 | 31.64310 | -12.59236 | 38113 ft | 440 kts | 11° |
| 2026-04-30 10:31 | 31.70141 | -12.57113 | 38115 ft | 439 kts | 11° |
| 2026-04-30 10:32 | 31.75970 | -12.54989 | 38105 ft | 438 kts | 11° |
| 2026-04-30 10:32 | 31.81787 | -12.52868 | 38101 ft | 438 kts | 11° |
| 2026-04-30 10:33 | 31.87607 | -12.50743 | 38107 ft | 439 kts | 11° |
| 2026-04-30 10:33 | 31.93437 | -12.48611 | 38111 ft | 440 kts | 11° |
| 2026-04-30 10:34 | 31.99281 | -12.46470 | 38123 ft | 441 kts | 11° |
| 2026-04-30 10:34 | 32.05150 | -12.44318 | 38143 ft | 442 kts | 11° |
| 2026-04-30 10:35 | 32.11035 | -12.42158 | 38143 ft | 444 kts | 11° |
| 2026-04-30 10:35 | 32.16942 | -12.39984 | 38115 ft | 446 kts | 12° |
| 2026-04-30 10:36 | 32.22869 | -12.37804 | 38127 ft | 452 kts | 12° |
| 2026-04-30 10:36 | 32.28914 | -12.35578 | 38142 ft | 457 kts | 12° |
| 2026-04-30 10:37 | 32.35018 | -12.33323 | 38123 ft | 460 kts | 12° |
| 2026-04-30 10:37 | 32.41133 | -12.31059 | 38115 ft | 462 kts | 12° |
| 2026-04-30 10:38 | 32.47271 | -12.28784 | 38124 ft | 461 kts | 12° |
| 2026-04-30 10:38 | 32.53393 | -12.26512 | 38115 ft | 461 kts | 12° |
| 2026-04-30 10:39 | 32.59512 | -12.24240 | 38119 ft | 461 kts | 13° |
| 2026-04-30 10:39 | 32.65635 | -12.21963 | 38122 ft | 461 kts | 13° |
| 2026-04-30 10:40 | 32.71748 | -12.19686 | 38117 ft | 461 kts | 13° |
| 2026-04-30 10:40 | 32.77872 | -12.17402 | 38117 ft | 461 kts | 13° |
| 2026-04-30 10:41 | 32.83984 | -12.15119 | 38119 ft | 461 kts | 13° |
| 2026-04-30 10:41 | 32.90093 | -12.12834 | 38115 ft | 460 kts | 13° |
| 2026-04-30 10:42 | 32.96207 | -12.10543 | 38121 ft | 460 kts | 13° |
| 2026-04-30 10:42 | 33.02315 | -12.08252 | 38112 ft | 460 kts | 13° |
| 2026-04-30 10:43 | 33.08416 | -12.05959 | 38123 ft | 460 kts | 13° |
| 2026-04-30 10:43 | 33.14532 | -12.03659 | 38110 ft | 462 kts | 14° |
| 2026-04-30 10:44 | 33.20708 | -12.01336 | 38120 ft | 469 kts | 14° |
| 2026-04-30 10:44 | 33.26970 | -11.98974 | 38131 ft | 473 kts | 14° |
| 2026-04-30 10:45 | 33.33263 | -11.96594 | 38128 ft | 475 kts | 14° |
| 2026-04-30 10:45 | 33.39534 | -11.94218 | 38128 ft | 477 kts | 14° |
| 2026-04-30 10:46 | 33.45897 | -11.91805 | 38124 ft | 477 kts | 14° |
| 2026-04-30 10:46 | 33.52184 | -11.89417 | 38123 ft | 476 kts | 14° |
| 2026-04-30 10:47 | 33.58494 | -11.87018 | 38097 ft | 476 kts | 14° |
| 2026-04-30 10:47 | 33.64789 | -11.84620 | 38118 ft | 475 kts | 14° |
| 2026-04-30 10:48 | 33.71085 | -11.82219 | 38135 ft | 474 kts | 14° |
| 2026-04-30 10:48 | 33.77377 | -11.79816 | 38140 ft | 474 kts | 14° |
| 2026-04-30 10:49 | 33.83671 | -11.77407 | 38110 ft | 474 kts | 14° |
| 2026-04-30 10:49 | 33.89956 | -11.74999 | 38099 ft | 474 kts | 14° |
| 2026-04-30 10:50 | 33.96237 | -11.72589 | 38102 ft | 475 kts | 14° |
| 2026-04-30 10:50 | 34.02526 | -11.70171 | 38120 ft | 474 kts | 14° |
| 2026-04-30 10:51 | 34.08821 | -11.67748 | 38135 ft | 474 kts | 14° |
| 2026-04-30 10:51 | 34.15113 | -11.65322 | 38119 ft | 474 kts | 14° |
| 2026-04-30 10:52 | 34.21403 | -11.62893 | 38112 ft | 475 kts | 15° |
| 2026-04-30 10:52 | 34.27701 | -11.60457 | 38110 ft | 476 kts | 15° |
| 2026-04-30 10:53 | 34.34022 | -11.58008 | 38124 ft | 477 kts | 15° |
| 2026-04-30 10:53 | 34.40351 | -11.55553 | 38127 ft | 478 kts | 15° |
| 2026-04-30 10:54 | 34.46690 | -11.53089 | 38121 ft | 479 kts | 15° |
| 2026-04-30 10:54 | 34.53041 | -11.50617 | 38124 ft | 480 kts | 15° |
| 2026-04-30 10:55 | 34.59401 | -11.48137 | 38110 ft | 481 kts | 15° |
| 2026-04-30 10:55 | 34.65726 | -11.45666 | 38127 ft | 480 kts | 15° |
| 2026-04-30 10:56 | 34.72137 | -11.43159 | 38121 ft | 481 kts | 15° |
| 2026-04-30 10:56 | 34.78507 | -11.40664 | 38126 ft | 481 kts | 15° |
| 2026-04-30 10:57 | 34.84841 | -11.38178 | 38116 ft | 482 kts | 15° |
| 2026-04-30 10:57 | 34.91224 | -11.35669 | 38120 ft | 482 kts | 15° |
| 2026-04-30 10:58 | 34.97601 | -11.33158 | 38125 ft | 482 kts | 15° |
| 2026-04-30 10:58 | 35.03981 | -11.30643 | 38079 ft | 482 kts | 15° |
| 2026-04-30 10:59 | 35.10351 | -11.28126 | 38118 ft | 480 kts | 15° |
| 2026-04-30 10:59 | 35.16711 | -11.25609 | 38134 ft | 480 kts | 15° |
| 2026-04-30 11:00 | 35.23059 | -11.23092 | 38128 ft | 480 kts | 15° |
| 2026-04-30 11:00 | 35.29408 | -11.20574 | 38125 ft | 480 kts | 16° |
| 2026-04-30 11:01 | 35.35765 | -11.18047 | 38118 ft | 480 kts | 16° |
| 2026-04-30 11:01 | 35.42122 | -11.15515 | 38124 ft | 480 kts | 16° |
| 2026-04-30 11:02 | 35.48479 | -11.12979 | 38115 ft | 481 kts | 16° |
| 2026-04-30 11:02 | 35.54843 | -11.10436 | 38118 ft | 481 kts | 16° |
| 2026-04-30 11:03 | 35.61203 | -11.07890 | 38122 ft | 481 kts | 16° |
| 2026-04-30 11:04 | 35.70749 | -11.04061 | 38112 ft | 481 kts | 16° |
| 2026-04-30 11:04 | 35.77111 | -11.01503 | 38131 ft | 481 kts | 16° |
| 2026-04-30 11:05 | 35.83487 | -10.98936 | 38118 ft | 482 kts | 16° |
| 2026-04-30 11:05 | 35.89815 | -10.96383 | 38122 ft | 482 kts | 16° |
| 2026-04-30 11:06 | 35.96239 | -10.93786 | 38096 ft | 483 kts | 17° |
| 2026-04-30 11:06 | 36.02466 | -10.90686 | 38142 ft | 483 kts | 24° |
| 2026-04-30 11:07 | 36.08567 | -10.87133 | 38122 ft | 484 kts | 24° |
| 2026-04-30 11:07 | 36.14627 | -10.83609 | 38111 ft | 485 kts | 24° |
| 2026-04-30 11:08 | 36.20763 | -10.80128 | 38126 ft | 485 kts | 23° |
| 2026-04-30 11:08 | 36.26919 | -10.76674 | 38122 ft | 486 kts | 23° |
| 2026-04-30 11:09 | 36.33089 | -10.73211 | 38109 ft | 487 kts | 24° |
| 2026-04-30 11:09 | 36.39250 | -10.69741 | 38120 ft | 487 kts | 24° |
| 2026-04-30 11:10 | 36.45420 | -10.66253 | 38117 ft | 487 kts | 24° |
| 2026-04-30 11:10 | 36.51586 | -10.62757 | 38117 ft | 487 kts | 24° |
| 2026-04-30 11:11 | 36.57749 | -10.59265 | 38115 ft | 487 kts | 22° |
| 2026-04-30 11:11 | 36.64109 | -10.56387 | 38113 ft | 486 kts | 14° |
| 2026-04-30 11:12 | 36.70710 | -10.54654 | 38159 ft | 483 kts | 10° |
| 2026-04-30 11:12 | 36.77265 | -10.52703 | 38148 ft | 483 kts | 9° |
| 2026-04-30 11:13 | 36.83881 | -10.52240 | 38136 ft | 477 kts | 351° |
| 2026-04-30 11:13 | 36.90462 | -10.53512 | 38098 ft | 476 kts | 351° |
| 2026-04-30 11:14 | 36.97031 | -10.53258 | 38102 ft | 479 kts | 13° |
| 2026-04-30 11:14 | 37.00167 | -10.51893 | 38073 ft | 480 kts | 26° |
| 2026-04-30 11:14 | 37.03064 | -10.49852 | 38223 ft | 476 kts | 33° |
| 2026-04-30 11:14 | 37.05860 | -10.47623 | 38116 ft | 478 kts | 32° |
| 2026-04-30 11:15 | 37.08766 | -10.45590 | 38109 ft | 478 kts | 24° |
| 2026-04-30 11:15 | 37.14004 | -10.43413 | 38139 ft | 477 kts | 12° |
| 2026-04-30 11:16 | 37.20510 | -10.41800 | 38130 ft | 477 kts | 9° |
| 2026-04-30 11:16 | 37.27058 | -10.40332 | 38130 ft | 478 kts | 9° |
| 2026-04-30 11:17 | 37.33611 | -10.38812 | 38125 ft | 479 kts | 9° |
| 2026-04-30 11:17 | 37.40171 | -10.37244 | 38112 ft | 480 kts | 10° |
| 2026-04-30 11:18 | 37.46741 | -10.35657 | 38113 ft | 481 kts | 10° |
| 2026-04-30 11:18 | 37.56621 | -10.33270 | 38115 ft | 482 kts | 10° |
| 2026-04-30 11:19 | 37.63219 | -10.31674 | 38108 ft | 483 kts | 10° |
| 2026-04-30 11:19 | 37.69826 | -10.30074 | 38117 ft | 483 kts | 10° |
| 2026-04-30 11:20 | 37.76425 | -10.28473 | 38110 ft | 483 kts | 10° |
| 2026-04-30 11:20 | 37.83028 | -10.26868 | 38115 ft | 483 kts | 10° |
| 2026-04-30 11:21 | 37.89626 | -10.25261 | 38108 ft | 483 kts | 10° |
| 2026-04-30 11:21 | 37.96226 | -10.23651 | 38113 ft | 482 kts | 10° |
| 2026-04-30 11:22 | 38.02809 | -10.22042 | 38111 ft | 482 kts | 10° |
| 2026-04-30 11:22 | 38.09392 | -10.20430 | 38111 ft | 482 kts | 10° |
| 2026-04-30 11:23 | 38.15974 | -10.18816 | 38112 ft | 481 kts | 10° |
| 2026-04-30 11:24 | 38.25825 | -10.16394 | 38105 ft | 481 kts | 10° |
| 2026-04-30 11:24 | 38.32389 | -10.14776 | 38112 ft | 480 kts | 10° |
| 2026-04-30 11:25 | 38.42232 | -10.12345 | 38111 ft | 480 kts | 10° |
| 2026-04-30 11:26 | 38.55359 | -10.09092 | 38107 ft | 481 kts | 10° |
| 2026-04-30 11:26 | 38.61931 | -10.07459 | 38113 ft | 481 kts | 10° |
| 2026-04-30 11:27 | 38.68511 | -10.05821 | 38109 ft | 482 kts | 10° |
| 2026-04-30 11:27 | 38.75046 | -10.04191 | 38110 ft | 482 kts | 10° |
| 2026-04-30 11:28 | 38.84970 | -10.01710 | 38108 ft | 482 kts | 10° |
| 2026-04-30 11:29 | 38.91513 | -10.00070 | 38106 ft | 483 kts | 10° |
| 2026-04-30 11:29 | 39.01403 | -9.97586 | 38108 ft | 483 kts | 10° |
| 2026-04-30 11:30 | 39.11310 | -9.95090 | 38108 ft | 484 kts | 10° |
| 2026-04-30 11:31 | 39.17917 | -9.93422 | 38110 ft | 484 kts | 10° |
| 2026-04-30 11:31 | 39.24524 | -9.91751 | 38103 ft | 484 kts | 10° |
| 2026-04-30 11:32 | 39.31135 | -9.90075 | 38108 ft | 484 kts | 10° |
| 2026-04-30 11:32 | 39.37740 | -9.88397 | 38100 ft | 484 kts | 10° |
| 2026-04-30 11:33 | 39.47652 | -9.85874 | 38103 ft | 484 kts | 10° |
| 2026-04-30 11:33 | 39.54309 | -9.84175 | 38102 ft | 484 kts | 10° |
| 2026-04-30 11:34 | 39.60866 | -9.82498 | 38090 ft | 483 kts | 10° |
| 2026-04-30 11:34 | 39.67465 | -9.80807 | 38104 ft | 483 kts | 10° |
| 2026-04-30 11:35 | 39.74054 | -9.79116 | 38094 ft | 483 kts | 10° |
| 2026-04-30 11:35 | 39.80648 | -9.77420 | 38106 ft | 482 kts | 10° |
| 2026-04-30 11:36 | 39.87228 | -9.75725 | 38105 ft | 482 kts | 10° |
| 2026-04-30 11:36 | 39.93812 | -9.74024 | 38096 ft | 482 kts | 10° |
| 2026-04-30 11:37 | 40.00390 | -9.72323 | 38098 ft | 482 kts | 10° |
| 2026-04-30 11:37 | 40.06970 | -9.70617 | 38104 ft | 482 kts | 10° |
| 2026-04-30 11:38 | 40.13549 | -9.68908 | 38097 ft | 482 kts | 10° |
| 2026-04-30 11:38 | 40.20129 | -9.67196 | 38093 ft | 482 kts | 10° |
| 2026-04-30 11:39 | 40.26703 | -9.65482 | 38097 ft | 482 kts | 10° |
| 2026-04-30 11:39 | 40.33288 | -9.63761 | 38096 ft | 482 kts | 10° |
| 2026-04-30 11:40 | 40.39869 | -9.62038 | 38097 ft | 482 kts | 10° |
| 2026-04-30 11:40 | 40.46443 | -9.60314 | 38101 ft | 482 kts | 10° |
| 2026-04-30 11:41 | 40.53023 | -9.58584 | 38101 ft | 482 kts | 10° |
| 2026-04-30 11:41 | 40.59605 | -9.56850 | 38089 ft | 482 kts | 10° |
| 2026-04-30 11:42 | 40.66190 | -9.55112 | 38097 ft | 482 kts | 10° |
| 2026-04-30 11:42 | 40.72771 | -9.53372 | 38098 ft | 482 kts | 10° |
| 2026-04-30 11:43 | 40.79350 | -9.51628 | 38095 ft | 482 kts | 10° |
| 2026-04-30 11:43 | 40.85807 | -9.49261 | 38026 ft | 485 kts | 26° |
| 2026-04-30 11:44 | 40.88719 | -9.47055 | 38168 ft | 481 kts | 33° |
| 2026-04-30 11:44 | 40.91486 | -9.44545 | 38066 ft | 483 kts | 36° |
| 2026-04-30 11:44 | 40.96920 | -9.39356 | 38096 ft | 483 kts | 35° |
| 2026-04-30 11:45 | 41.02477 | -9.34378 | 38095 ft | 483 kts | 32° |
| 2026-04-30 11:45 | 41.08118 | -9.29550 | 38099 ft | 482 kts | 33° |
| 2026-04-30 11:46 | 41.13680 | -9.24679 | 38084 ft | 483 kts | 33° |
| 2026-04-30 11:46 | 41.19246 | -9.19700 | 38100 ft | 483 kts | 34° |
| 2026-04-30 11:47 | 41.24810 | -9.14687 | 38099 ft | 483 kts | 34° |
| 2026-04-30 11:47 | 41.30376 | -9.09666 | 38100 ft | 484 kts | 34° |
| 2026-04-30 11:48 | 41.35953 | -9.04631 | 38091 ft | 484 kts | 34° |
| 2026-04-30 11:48 | 41.41527 | -8.99590 | 38100 ft | 484 kts | 34° |
| 2026-04-30 11:49 | 41.47089 | -8.94549 | 38103 ft | 484 kts | 33° |
| 2026-04-30 11:49 | 41.52688 | -8.89462 | 38110 ft | 483 kts | 34° |
| 2026-04-30 11:50 | 41.58213 | -8.84433 | 38101 ft | 484 kts | 34° |
| 2026-04-30 11:50 | 41.63778 | -8.79357 | 38108 ft | 485 kts | 34° |
| 2026-04-30 11:51 | 41.69341 | -8.74270 | 38116 ft | 484 kts | 33° |
| 2026-04-30 11:51 | 41.74896 | -8.69179 | 38117 ft | 483 kts | 33° |
| 2026-04-30 11:52 | 41.80446 | -8.64084 | 38101 ft | 483 kts | 33° |
| 2026-04-30 11:52 | 41.86057 | -8.59166 | 38062 ft | 481 kts | 25° |
| 2026-04-30 11:53 | 41.92295 | -8.56189 | 38193 ft | 475 kts | 15° |
| 2026-04-30 11:53 | 41.98530 | -8.53191 | 38120 ft | 478 kts | 21° |
| 2026-04-30 11:54 | 42.04638 | -8.49617 | 38116 ft | 479 kts | 21° |
| 2026-04-30 11:54 | 42.10761 | -8.46095 | 38130 ft | 479 kts | 20° |
| 2026-04-30 11:55 | 42.16942 | -8.42699 | 38098 ft | 479 kts | 20° |
| 2026-04-30 11:55 | 42.23133 | -8.39364 | 38107 ft | 480 kts | 19° |
| 2026-04-30 11:56 | 42.29337 | -8.36023 | 38124 ft | 480 kts | 19° |
| 2026-04-30 11:56 | 42.35541 | -8.32666 | 38118 ft | 480 kts | 19° |
| 2026-04-30 11:57 | 42.41751 | -8.29293 | 38083 ft | 480 kts | 19° |
| 2026-04-30 11:57 | 42.47941 | -8.25922 | 38087 ft | 480 kts | 19° |
| 2026-04-30 11:58 | 42.54127 | -8.22547 | 38108 ft | 479 kts | 19° |
| 2026-04-30 11:58 | 42.60296 | -8.19173 | 38112 ft | 478 kts | 19° |
| 2026-04-30 11:59 | 42.66466 | -8.15793 | 38103 ft | 477 kts | 19° |
| 2026-04-30 11:59 | 42.72630 | -8.12408 | 38079 ft | 478 kts | 20° |
| 2026-04-30 12:00 | 42.78801 | -8.09014 | 38101 ft | 478 kts | 19° |
| 2026-04-30 12:00 | 42.84957 | -8.05618 | 38108 ft | 477 kts | 19° |
| 2026-04-30 12:01 | 42.91073 | -8.02237 | 38088 ft | 478 kts | 19° |
| 2026-04-30 12:01 | 42.97222 | -7.98832 | 38104 ft | 477 kts | 19° |
| 2026-04-30 12:02 | 43.03379 | -7.95415 | 38089 ft | 477 kts | 20° |
| 2026-04-30 12:02 | 43.08539 | -7.92545 | 38103 ft | 478 kts | 20° |
| 2026-04-30 12:03 | 43.17782 | -7.87392 | 38097 ft | 478 kts | 20° |
| 2026-04-30 12:04 | 43.23947 | -7.83945 | 38083 ft | 479 kts | 20° |
| 2026-04-30 12:04 | 43.30118 | -7.80487 | 38096 ft | 479 kts | 20° |
| 2026-04-30 12:05 | 43.36285 | -7.77024 | 38082 ft | 479 kts | 20° |
| 2026-04-30 12:05 | 43.42456 | -7.73550 | 38087 ft | 479 kts | 20° |
| 2026-04-30 12:06 | 43.48579 | -7.70097 | 38092 ft | 479 kts | 20° |
| 2026-04-30 12:06 | 43.54750 | -7.66608 | 38075 ft | 479 kts | 20° |
| 2026-04-30 12:07 | 43.60921 | -7.63111 | 38099 ft | 478 kts | 20° |
| 2026-04-30 12:07 | 43.67073 | -7.59618 | 38087 ft | 477 kts | 20° |
| 2026-04-30 12:08 | 43.73210 | -7.56126 | 38077 ft | 477 kts | 20° |
| 2026-04-30 12:08 | 43.79334 | -7.52634 | 38087 ft | 476 kts | 20° |
| 2026-04-30 12:09 | 43.85446 | -7.49140 | 38082 ft | 475 kts | 20° |
| 2026-04-30 12:09 | 43.91545 | -7.45646 | 38091 ft | 474 kts | 20° |
| 2026-04-30 12:10 | 43.97628 | -7.42154 | 38089 ft | 473 kts | 20° |
| 2026-04-30 12:10 | 44.03704 | -7.38658 | 38093 ft | 473 kts | 20° |
| 2026-04-30 12:11 | 44.09784 | -7.35151 | 38082 ft | 472 kts | 20° |
| 2026-04-30 12:11 | 44.15847 | -7.31647 | 38096 ft | 472 kts | 20° |
| 2026-04-30 12:12 | 44.21908 | -7.28136 | 38092 ft | 472 kts | 20° |
| 2026-04-30 12:12 | 44.27982 | -7.24610 | 38086 ft | 473 kts | 20° |
| 2026-04-30 12:13 | 44.34051 | -7.21078 | 38088 ft | 473 kts | 20° |
| 2026-04-30 12:13 | 44.40118 | -7.17539 | 38100 ft | 473 kts | 20° |
| 2026-04-30 12:14 | 44.46185 | -7.13993 | 38088 ft | 473 kts | 20° |
| 2026-04-30 12:14 | 44.52261 | -7.10434 | 38090 ft | 473 kts | 20° |
| 2026-04-30 12:15 | 44.58289 | -7.06894 | 38084 ft | 473 kts | 20° |
| 2026-04-30 12:15 | 44.64355 | -7.03324 | 38088 ft | 473 kts | 20° |
| 2026-04-30 12:16 | 44.70416 | -6.99748 | 38094 ft | 472 kts | 20° |
| 2026-04-30 12:16 | 44.76476 | -6.96165 | 38084 ft | 472 kts | 20° |
| 2026-04-30 12:17 | 44.85528 | -6.90632 | 38068 ft | 474 kts | 25° |
| 2026-04-30 12:17 | 44.91256 | -6.86014 | 38094 ft | 475 kts | 29° |
| 2026-04-30 12:18 | 44.96888 | -6.81143 | 38102 ft | 474 kts | 29° |
| 2026-04-30 12:18 | 45.02546 | -6.76345 | 38096 ft | 474 kts | 28° |
| 2026-04-30 12:19 | 45.08228 | -6.71623 | 38087 ft | 474 kts | 28° |
| 2026-04-30 12:19 | 45.13917 | -6.66919 | 38084 ft | 474 kts | 28° |
| 2026-04-30 12:20 | 45.19604 | -6.62204 | 38108 ft | 473 kts | 29° |
| 2026-04-30 12:20 | 45.25287 | -6.57476 | 38090 ft | 474 kts | 29° |
| 2026-04-30 12:21 | 45.30975 | -6.52731 | 38090 ft | 473 kts | 29° |
| 2026-04-30 12:21 | 45.36647 | -6.47986 | 38085 ft | 473 kts | 29° |
| 2026-04-30 12:22 | 45.42320 | -6.43229 | 38093 ft | 473 kts | 29° |
| 2026-04-30 12:22 | 45.47986 | -6.38468 | 38090 ft | 473 kts | 29° |
| 2026-04-30 12:23 | 45.53645 | -6.33700 | 38083 ft | 473 kts | 29° |
| 2026-04-30 12:23 | 45.59307 | -6.28920 | 38090 ft | 472 kts | 29° |
| 2026-04-30 12:24 | 45.64959 | -6.24137 | 38080 ft | 472 kts | 30° |
| 2026-04-30 12:24 | 45.70612 | -6.19342 | 38087 ft | 472 kts | 30° |
| 2026-04-30 12:25 | 45.76259 | -6.14539 | 38080 ft | 472 kts | 30° |
| 2026-04-30 12:25 | 45.81858 | -6.09766 | 38091 ft | 471 kts | 30° |
| 2026-04-30 12:26 | 45.87497 | -6.04948 | 38080 ft | 472 kts | 30° |
| 2026-04-30 12:26 | 45.93134 | -6.00121 | 38085 ft | 471 kts | 30° |
| 2026-04-30 12:27 | 45.98759 | -5.95291 | 38076 ft | 472 kts | 30° |
| 2026-04-30 12:27 | 46.04389 | -5.90445 | 38088 ft | 471 kts | 31° |
| 2026-04-30 12:28 | 46.10008 | -5.85598 | 38074 ft | 471 kts | 31° |
| 2026-04-30 12:28 | 46.15619 | -5.80747 | 38076 ft | 470 kts | 31° |
| 2026-04-30 12:29 | 46.21225 | -5.75887 | 38072 ft | 470 kts | 31° |
| 2026-04-30 12:29 | 46.26821 | -5.71025 | 38076 ft | 469 kts | 31° |
| 2026-04-30 12:30 | 46.32414 | -5.66154 | 38083 ft | 469 kts | 31° |
| 2026-04-30 12:30 | 46.37990 | -5.61284 | 38065 ft | 469 kts | 31° |
| 2026-04-30 12:31 | 46.43569 | -5.56402 | 38079 ft | 468 kts | 31° |
| 2026-04-30 12:31 | 46.49134 | -5.51519 | 38072 ft | 467 kts | 31° |
| 2026-04-30 12:32 | 46.54692 | -5.46629 | 38076 ft | 467 kts | 31° |
| 2026-04-30 12:32 | 46.60242 | -5.41737 | 38073 ft | 466 kts | 31° |
| 2026-04-30 12:33 | 46.65787 | -5.36841 | 38074 ft | 466 kts | 31° |
| 2026-04-30 12:33 | 46.71318 | -5.31947 | 38068 ft | 466 kts | 31° |
| 2026-04-30 12:34 | 46.76850 | -5.27040 | 38073 ft | 465 kts | 31° |
| 2026-04-30 12:34 | 46.82379 | -5.22123 | 38057 ft | 465 kts | 31° |
| 2026-04-30 12:35 | 46.87892 | -5.17207 | 38073 ft | 464 kts | 31° |
| 2026-04-30 12:35 | 46.93404 | -5.12281 | 38062 ft | 464 kts | 31° |
| 2026-04-30 12:36 | 46.98904 | -5.07352 | 38075 ft | 463 kts | 31° |
| 2026-04-30 12:36 | 47.04402 | -5.02414 | 38058 ft | 463 kts | 31° |
| 2026-04-30 12:37 | 47.09888 | -4.97475 | 38076 ft | 463 kts | 32° |
| 2026-04-30 12:37 | 47.15348 | -4.92547 | 38054 ft | 463 kts | 32° |
| 2026-04-30 12:38 | 47.20835 | -4.87583 | 38065 ft | 463 kts | 32° |
| 2026-04-30 12:38 | 47.26319 | -4.82608 | 38053 ft | 463 kts | 32° |
| 2026-04-30 12:39 | 47.31798 | -4.77626 | 38056 ft | 463 kts | 32° |
| 2026-04-30 12:39 | 47.37282 | -4.72627 | 38050 ft | 463 kts | 32° |
| 2026-04-30 12:40 | 47.42763 | -4.67619 | 38054 ft | 463 kts | 32° |
| 2026-04-30 12:40 | 47.48235 | -4.62606 | 38031 ft | 463 kts | 32° |
| 2026-04-30 12:41 | 47.53711 | -4.57577 | 38062 ft | 463 kts | 32° |
| 2026-04-30 12:41 | 47.59187 | -4.52536 | 38028 ft | 464 kts | 32° |
| 2026-04-30 12:42 | 47.64657 | -4.47487 | 38057 ft | 463 kts | 32° |
| 2026-04-30 12:42 | 47.70130 | -4.42423 | 38050 ft | 464 kts | 32° |
| 2026-04-30 12:43 | 47.75603 | -4.37346 | 38037 ft | 464 kts | 33° |
| 2026-04-30 12:43 | 47.81092 | -4.32290 | 38053 ft | 464 kts | 30° |
| 2026-04-30 12:44 | 47.86954 | -4.28265 | 38079 ft | 464 kts | 19° |
| 2026-04-30 12:44 | 47.93194 | -4.25713 | 38082 ft | 465 kts | 12° |
| 2026-04-30 12:45 | 47.99480 | -4.23618 | 38049 ft | 466 kts | 14° |
| 2026-04-30 12:45 | 48.05792 | -4.21185 | 38049 ft | 466 kts | 16° |
| 2026-04-30 12:46 | 48.12038 | -4.18527 | 38030 ft | 467 kts | 17° |
| 2026-04-30 12:46 | 48.18278 | -4.15804 | 38045 ft | 468 kts | 17° |
| 2026-04-30 12:47 | 48.24535 | -4.13079 | 38024 ft | 470 kts | 17° |
| 2026-04-30 12:47 | 48.30822 | -4.10348 | 38027 ft | 470 kts | 17° |
| 2026-04-30 12:48 | 48.37106 | -4.07617 | 38022 ft | 470 kts | 17° |
| 2026-04-30 12:48 | 48.43397 | -4.04876 | 38023 ft | 470 kts | 17° |
| 2026-04-30 12:49 | 48.49688 | -4.02126 | 38014 ft | 472 kts | 17° |
| 2026-04-30 12:49 | 48.55963 | -3.99377 | 38002 ft | 474 kts | 17° |
| 2026-04-30 12:50 | 48.62287 | -3.96598 | 38010 ft | 473 kts | 17° |
| 2026-04-30 12:50 | 48.68603 | -3.93815 | 38036 ft | 472 kts | 17° |
| 2026-04-30 12:51 | 48.74910 | -3.91029 | 38031 ft | 471 kts | 17° |
| 2026-04-30 12:51 | 48.81199 | -3.88245 | 38026 ft | 470 kts | 17° |
| 2026-04-30 12:52 | 48.86447 | -3.85914 | 38011 ft | 469 kts | 17° |
| 2026-04-30 12:52 | 48.92706 | -3.83129 | 38039 ft | 468 kts | 17° |
| 2026-04-30 12:53 | 48.98997 | -3.80523 | 38030 ft | 468 kts | 12° |
| 2026-04-30 12:53 | 49.05458 | -3.79320 | 38069 ft | 468 kts | 4° |
| 2026-04-30 12:54 | 49.11968 | -3.78765 | 38063 ft | 468 kts | 4° |
| 2026-04-30 12:54 | 49.18486 | -3.78121 | 38051 ft | 469 kts | 5° |
| 2026-04-30 12:55 | 49.25000 | -3.77318 | 38027 ft | 470 kts | 5° |
| 2026-04-30 12:55 | 49.31518 | -3.76445 | 38057 ft | 471 kts | 6° |
| 2026-04-30 12:56 | 49.38057 | -3.75560 | 38051 ft | 472 kts | 5° |
| 2026-04-30 12:56 | 49.44557 | -3.74684 | 38071 ft | 472 kts | 5° |
| 2026-04-30 12:57 | 49.51112 | -3.73805 | 38041 ft | 474 kts | 5° |
| 2026-04-30 12:57 | 49.57683 | -3.72922 | 38076 ft | 474 kts | 5° |
| 2026-04-30 12:58 | 49.64254 | -3.72036 | 38053 ft | 475 kts | 5° |
| 2026-04-30 12:58 | 49.70833 | -3.71147 | 38078 ft | 474 kts | 6° |
| 2026-04-30 12:59 | 49.77408 | -3.70256 | 38068 ft | 474 kts | 6° |
| 2026-04-30 12:59 | 49.83978 | -3.69363 | 38077 ft | 474 kts | 6° |
| 2026-04-30 13:00 | 49.90545 | -3.68467 | 38075 ft | 474 kts | 6° |
| 2026-04-30 13:00 | 49.97113 | -3.67570 | 38079 ft | 473 kts | 6° |
| 2026-04-30 13:01 | 50.03664 | -3.66673 | 38097 ft | 473 kts | 6° |
| 2026-04-30 13:01 | 50.10217 | -3.65772 | 38093 ft | 473 kts | 6° |
| 2026-04-30 13:02 | 50.16764 | -3.64871 | 38094 ft | 472 kts | 6° |
| 2026-04-30 13:02 | 50.23301 | -3.63968 | 38107 ft | 471 kts | 6° |
| 2026-04-30 13:03 | 50.29830 | -3.63062 | 38120 ft | 471 kts | 6° |
| 2026-04-30 13:03 | 50.36348 | -3.62157 | 38122 ft | 471 kts | 6° |
| 2026-04-30 13:04 | 50.42835 | -3.61253 | 38123 ft | 471 kts | 6° |
| 2026-04-30 13:04 | 50.49361 | -3.60341 | 38124 ft | 471 kts | 6° |
| 2026-04-30 13:05 | 50.55886 | -3.59427 | 38131 ft | 471 kts | 6° |
| 2026-04-30 13:06 | 50.64402 | -3.58231 | 38099 ft | 472 kts | 6° |
| 2026-04-30 13:07 | 50.66388 | -3.57951 | 38107 ft | 472 kts | 6° |
| 2026-04-30 13:07 | 50.91135 | -3.54451 | 38109 ft | 474 kts | 6° |
| 2026-04-30 13:08 | 51.20068 | -3.50316 | 38118 ft | 475 kts | 6° |
| 2026-04-30 13:08 | 52.25799 | -3.34706 | 38135 ft | 477 kts | 7° |
| 2026-04-30 13:09 | 52.51864 | -3.30634 | 38175 ft | 477 kts | 6° |
| 2026-04-30 13:09 | 52.58468 | -3.29587 | 38152 ft | 477 kts | 10° |
| 2026-04-30 13:09 | 52.61700 | -3.28437 | 38129 ft | 475 kts | 21° |
| 2026-04-30 13:10 | 52.64615 | -3.26011 | 38103 ft | 465 kts | 38° |
| 2026-04-30 13:10 | 52.67203 | -3.22943 | 37978 ft | 452 kts | 39° |
| 2026-04-30 13:10 | 52.69754 | -3.19916 | 37319 ft | 454 kts | 37° |
| 2026-04-30 13:10 | 52.72425 | -3.17097 | 36576 ft | 458 kts | 34° |
| 2026-04-30 13:11 | 52.75189 | -3.14418 | 35882 ft | 461 kts | 34° |
| 2026-04-30 13:11 | 52.77979 | -3.11791 | 35231 ft | 463 kts | 34° |
| 2026-04-30 13:11 | 52.80778 | -3.09152 | 34617 ft | 463 kts | 34° |
| 2026-04-30 13:11 | 52.83572 | -3.06483 | 34006 ft | 463 kts | 35° |
| 2026-04-30 13:12 | 52.86345 | -3.03793 | 33354 ft | 462 kts | 36° |
| 2026-04-30 13:12 | 52.89104 | -3.01086 | 32705 ft | 461 kts | 36° |
| 2026-04-30 13:12 | 52.91855 | -2.98368 | 32113 ft | 459 kts | 36° |
| 2026-04-30 13:13 | 52.97313 | -2.92932 | 30996 ft | 456 kts | 36° |
| 2026-04-30 13:13 | 53.00026 | -2.90219 | 30460 ft | 454 kts | 36° |
| 2026-04-30 13:13 | 53.05413 | -2.84847 | 29291 ft | 449 kts | 36° |
| 2026-04-30 13:14 | 53.08091 | -2.82185 | 28720 ft | 446 kts | 36° |
| 2026-04-30 13:14 | 53.10746 | -2.79539 | 28150 ft | 444 kts | 36° |
| 2026-04-30 13:14 | 53.16003 | -2.74281 | 27090 ft | 438 kts | 36° |
| 2026-04-30 13:15 | 53.18605 | -2.71671 | 26587 ft | 434 kts | 36° |
| 2026-04-30 13:15 | 53.23740 | -2.66503 | 25617 ft | 428 kts | 36° |
| 2026-04-30 13:15 | 53.26247 | -2.63974 | 25172 ft | 425 kts | 36° |
| 2026-04-30 13:16 | 53.28801 | -2.61394 | 24708 ft | 422 kts | 36° |
| 2026-04-30 13:16 | 53.31305 | -2.58861 | 24269 ft | 419 kts | 36° |
| 2026-04-30 13:16 | 53.33755 | -2.56380 | 23814 ft | 416 kts | 36° |
| 2026-04-30 13:17 | 53.38667 | -2.51393 | 22808 ft | 410 kts | 35° |
| 2026-04-30 13:17 | 53.41084 | -2.48903 | 22323 ft | 406 kts | 37° |
| 2026-04-30 13:17 | 53.45797 | -2.43660 | 20597 ft | 417 kts | 38° |
| 2026-04-30 13:18 | 53.48239 | -2.40862 | 19421 ft | 432 kts | 38° |
| 2026-04-30 13:18 | 53.53308 | -2.35084 | 17302 ft | 445 kts | 37° |
| 2026-04-30 13:18 | 53.55851 | -2.32218 | 16705 ft | 437 kts | 37° |
| 2026-04-30 13:19 | 53.58362 | -2.29399 | 16134 ft | 429 kts | 37° |
| 2026-04-30 13:19 | 53.60832 | -2.26624 | 15427 ft | 425 kts | 37° |
| 2026-04-30 13:19 | 53.63307 | -2.23834 | 14465 ft | 429 kts | 38° |
| 2026-04-30 13:19 | 53.65770 | -2.21049 | 13821 ft | 423 kts | 38° |
| 2026-04-30 13:20 | 53.68176 | -2.18332 | 13521 ft | 408 kts | 38° |
| 2026-04-30 13:20 | 53.70514 | -2.15687 | 12814 ft | 405 kts | 38° |
| 2026-04-30 13:20 | 53.72851 | -2.13031 | 12042 ft | 404 kts | 38° |
| 2026-04-30 13:20 | 53.75177 | -2.10381 | 11356 ft | 402 kts | 38° |
| 2026-04-30 13:21 | 53.77486 | -2.07751 | 10715 ft | 398 kts | 38° |
| 2026-04-30 13:21 | 53.79770 | -2.05149 | 9990 ft | 395 kts | 39° |
| 2026-04-30 13:21 | 53.82095 | -2.02490 | 8529 ft | 412 kts | 38° |
| 2026-04-30 13:22 | 53.87179 | -1.98735 | 7977 ft | 391 kts | 9° |
| 2026-04-30 13:22 | 53.89883 | -1.98944 | 7369 ft | 391 kts | 347° |
| 2026-04-30 13:22 | 53.94452 | -2.02557 | 7585 ft | 322 kts | 330° |
| 2026-04-30 13:23 | 53.96315 | -2.04350 | 7277 ft | 298 kts | 328° |
| 2026-04-30 13:23 | 53.98938 | -2.09083 | 6428 ft | 261 kts | 303° |
| 2026-04-30 13:24 | 54.02137 | -2.11050 | 4981 ft | 257 kts | 22° |
| 2026-04-30 13:24 | 54.04144 | -2.06918 | 3525 ft | 227 kts | 79° |
| 2026-04-30 13:25 | 54.04847 | -2.02151 | 2963 ft | 186 kts | 93° |
| 2026-04-30 13:25 | 54.04403 | -1.98201 | 2955 ft | 158 kts | 118° |
| 2026-04-30 13:26 | 54.02481 | -1.93767 | 2958 ft | 160 kts | 126° |
| 2026-04-30 13:26 | 54.01219 | -1.90826 | 2964 ft | 146 kts | 126° |
| 2026-04-30 13:27 | 53.99985 | -1.88014 | 2948 ft | 149 kts | 126° |
| 2026-04-30 13:28 | 53.98172 | -1.83925 | 2962 ft | 145 kts | 131° |
| 2026-04-30 13:28 | 53.96746 | -1.81644 | 2984 ft | 138 kts | 136° |
| 2026-04-30 13:28 | 53.96025 | -1.80519 | 2789 ft | 144 kts | 134° |
| 2026-04-30 13:29 | 53.94501 | -1.78203 | 2262 ft | 147 kts | 134° |
| 2026-04-30 13:29 | 53.92944 | -1.75885 | 1852 ft | 158 kts | 133° |
| 2026-04-30 13:30 | 53.90449 | -1.72103 | 1808 ft | 158 kts | 133° |
| 2026-04-30 13:31 | 53.88865 | -1.69584 | 1326 ft | 153 kts | 134° |
| 2026-04-30 13:31 | 53.86642 | -1.66123 | 665 ft | 113 kts | 138° |
| 2026-04-30 13:32 | 53.86327 | -1.65456 | 678 ft | 9 kts | 1° |
| 2026-04-30 13:32 | 53.86502 | -1.65439 | 667 ft | 1 kts | 4° |
| 2026-04-30 13:33 | 53.86602 | -1.65430 | 663 ft | 16 kts | 3° |
| 2026-04-30 13:33 | 53.86762 | -1.65415 | 660 ft | 13 kts | 1° |
| 2026-04-30 13:34 | 53.86824 | -1.65312 | 661 ft | 14 kts | 89° |
| 2026-04-30 13:34 | 53.86871 | -1.65219 | 664 ft | 0 kts | 2° |